Time;durP1;ratioP1;P1;durP2;ratioP2;P2;SDS_P1;SDS_P2;PMS_P1;PMS_P2;Temp;Humidity;BMP_temperature;BMP_pressure;BME280_temperature;BME280_humidity;BME280_pressure;Samples;Min_cycle;Max_cycle;Signal;HPM_P1;HPM_P2
2020/12/10 00:01:18;;;;;;;46.20;22.90;;;;;;;-1.07;75.72;98559.14;2146616;82;21182;-81
2020/12/10 00:04:19;;;;;;;45.47;22.17;;;;;;;-1.01;75.70;98560.75;2146963;83;21280;-79
2020/12/10 00:07:21;;;;;;;50.33;23.93;;;;;;;-0.97;75.64;98565.23;2147433;82;21157;-80
2020/12/10 00:10:22;;;;;;;41.57;17.30;;;;;;;-0.97;75.59;98563.55;2146430;82;21429;-81
2020/12/10 00:13:23;;;;;;;41.10;19.80;;;;;;;-1.02;75.57;98564.99;2146178;82;21141;-81
2020/12/10 00:16:24;;;;;;;40.10;21.50;;;;;;;-1.15;75.63;98572.83;2146423;82;21143;-79
2020/12/10 00:19:25;;;;;;;29.00;15.10;;;;;;;-1.16;75.92;98568.91;2146257;82;21141;-81
2020/12/10 00:22:26;;;;;;;39.60;19.17;;;;;;;-1.14;75.97;98563.07;2146843;82;21256;-81
2020/12/10 00:25:27;;;;;;;46.00;19.40;;;;;;;-1.16;75.97;98569.79;2147070;82;21307;-80
2020/12/10 00:28:28;;;;;;;43.07;21.20;;;;;;;-1.24;76.24;98557.38;2147368;82;21109;-81
2020/12/10 00:31:32;;;;;;;45.67;21.47;;;;;;;-1.34;76.41;98564.97;2147441;82;21149;-79
2020/12/10 00:34:33;;;;;;;50.67;22.80;;;;;;;-1.35;76.62;98561.93;2147059;82;21145;-80
2020/12/10 00:37:34;;;;;;;49.57;23.63;;;;;;;-1.31;76.61;98558.33;2146426;82;21160;-80
2020/12/10 00:40:35;;;;;;;48.87;24.07;;;;;;;-1.29;76.46;98554.58;2146561;83;21268;-80
2020/12/10 00:43:36;;;;;;;56.03;23.20;;;;;;;-1.25;76.59;98556.50;2146852;82;21558;-80
2020/12/10 00:46:40;;;;;;;45.70;21.23;;;;;;;-1.20;76.41;98559.30;2147180;83;21130;-79
2020/12/10 00:49:41;;;;;;;40.13;20.30;;;;;;;-1.18;76.33;98564.11;2146775;83;21434;-79
2020/12/10 00:52:42;;;;;;;52.30;25.63;;;;;;;-1.23;76.48;98564.27;2146850;82;21141;-78
2020/12/10 00:55:43;;;;;;;35.17;17.83;;;;;;;-1.29;76.59;98556.73;2146544;82;21747;-80
2020/12/10 00:58:44;;;;;;;51.30;22.60;;;;;;;-1.32;76.65;98560.41;2146594;82;21117;-78
2020/12/10 01:01:45;;;;;;;45.63;21.53;;;;;;;-1.34;76.59;98563.69;2145193;83;21287;-79
2020/12/10 01:04:46;;;;;;;44.60;22.33;;;;;;;-1.35;76.53;98558.09;2146765;82;21279;-80
2020/12/10 01:07:47;;;;;;;51.63;23.13;;;;;;;-1.33;76.57;98546.25;2146659;83;21121;-78
2020/12/10 01:10:49;;;;;;;52.30;23.43;;;;;;;-1.35;76.60;98550.01;2147111;83;21265;-79
2020/12/10 01:13:50;;;;;;;50.67;23.00;;;;;;;-1.34;76.65;98545.37;2146200;83;21114;-78
2020/12/10 01:16:51;;;;;;;43.33;21.03;;;;;;;-1.35;76.83;98542.73;2146630;82;21137;-79
2020/12/10 01:19:52;;;;;;;45.20;22.70;;;;;;;-1.35;76.65;98541.45;2146611;82;21252;-79
2020/12/10 01:22:53;;;;;;;48.17;22.23;;;;;;;-1.34;76.59;98540.64;2147151;82;21118;-79
2020/12/10 01:25:54;;;;;;;48.43;22.77;;;;;;;-1.32;76.62;98543.77;2146159;82;21193;-79
2020/12/10 01:28:55;;;;;;;36.90;18.67;;;;;;;-1.32;76.49;98537.77;2145714;83;21691;-78
2020/12/10 01:31:56;;;;;;;41.80;22.00;;;;;;;-1.29;76.46;98527.29;2146531;82;21134;-79
2020/12/10 01:34:57;;;;;;;40.43;20.93;;;;;;;-1.24;76.38;98535.61;2145696;82;21240;-79
2020/12/10 01:37:58;;;;;;;43.07;21.07;;;;;;;-1.32;76.50;98523.28;2146430;83;21419;-79
2020/12/10 01:40:59;;;;;;;48.20;23.77;;;;;;;-1.40;76.58;98518.16;2146851;82;21439;-80
2020/12/10 01:44:00;;;;;;;38.53;17.07;;;;;;;-1.49;76.80;98519.35;2146752;82;21185;-78
2020/12/10 01:47:04;;;;;;;46.83;22.23;;;;;;;-1.55;76.74;98517.74;2146841;82;21423;-80
2020/12/10 01:50:05;;;;;;;50.00;22.73;;;;;;;-1.58;76.92;98511.18;2146938;83;21172;-79
2020/12/10 01:53:06;;;;;;;44.37;20.27;;;;;;;-1.59;77.14;98503.91;2147449;82;21249;-79
2020/12/10 01:56:07;;;;;;;42.90;18.20;;;;;;;-1.61;77.12;98498.70;2146894;82;21393;-79
2020/12/10 01:59:08;;;;;;;36.30;16.43;;;;;;;-1.71;77.33;98495.56;2146930;82;21138;-80
2020/12/10 02:02:12;;;;;;;44.90;18.53;;;;;;;-1.72;77.28;98499.80;2146728;82;21204;-79
2020/12/10 02:05:13;;;;;;;53.87;23.13;;;;;;;-1.71;77.49;98504.52;2146771;82;21300;-79
2020/12/10 02:08:14;;;;;;;40.13;19.03;;;;;;;-1.73;77.42;98505.72;2146874;83;21125;-80
2020/12/10 02:11:15;;;;;;;48.70;22.13;;;;;;;-1.70;77.50;98496.92;2146900;83;21276;-79
2020/12/10 02:14:16;;;;;;;51.10;22.20;;;;;;;-1.65;77.40;98496.78;2146475;82;21101;-78
2020/12/10 02:17:17;;;;;;;51.40;23.20;;;;;;;-1.63;77.39;98496.45;2146965;82;21577;-79
2020/12/10 02:20:18;;;;;;;42.53;20.57;;;;;;;-1.54;77.22;98490.07;2146891;82;21141;-79
2020/12/10 02:23:19;;;;;;;38.73;16.90;;;;;;;-1.50;77.28;98494.16;2146383;82;21137;-79
2020/12/10 02:26:21;;;;;;;38.63;18.73;;;;;;;-1.50;77.28;98494.16;2146702;83;21161;-80
2020/12/10 02:29:22;;;;;;;50.33;22.70;;;;;;;-1.58;76.99;98490.30;2146942;82;21428;-79
2020/12/10 02:32:26;;;;;;;44.47;21.67;;;;;;;-1.68;77.45;98481.66;2147220;82;21930;-78
2020/12/10 02:35:27;;;;;;;42.03;19.47;;;;;;;-1.80;77.79;98475.84;2146688;83;21145;-79
2020/12/10 02:38:29;;;;;;;46.50;21.67;;;;;;;-1.80;77.82;98470.73;2147336;83;21284;-79
2020/12/10 02:41:33;;;;;;;48.53;19.80;;;;;;;-1.75;77.57;98465.46;2147238;83;21537;-79
2020/12/10 02:44:34;;;;;;;45.73;21.00;;;;;;;-1.73;77.54;98468.62;2147017;83;21279;-79
2020/12/10 02:47:35;;;;;;;46.57;21.03;;;;;;;-1.71;77.47;98463.58;2147093;82;21252;-79
2020/12/10 02:50:36;;;;;;;47.97;21.23;;;;;;;-1.72;77.53;98464.38;2147161;82;21110;-78
2020/12/10 02:53:37;;;;;;;48.63;22.30;;;;;;;-1.69;77.53;98459.42;2146970;82;21133;-79
2020/12/10 02:56:38;;;;;;;48.00;20.00;;;;;;;-1.69;77.42;98458.14;2146899;82;21110;-79
2020/12/10 02:59:39;;;;;;;55.07;24.83;;;;;;;-1.70;77.83;98458.94;2146789;82;21415;-78
2020/12/10 03:02:40;;;;;;;46.77;20.23;;;;;;;-1.80;77.92;98441.30;2147075;82;21153;-81
2020/12/10 03:05:41;;;;;;;49.40;20.23;;;;;;;-1.89;78.16;98446.81;2146212;83;21311;-79
2020/12/10 03:08:42;;;;;;;40.70;19.20;;;;;;;-1.94;78.63;98450.41;2146942;82;21146;-79
2020/12/10 03:11:43;;;;;;;52.37;24.17;;;;;;;-1.93;78.59;98443.21;2147017;82;21186;-79
2020/12/10 03:14:44;;;;;;;51.77;22.60;;;;;;;-1.89;78.19;98435.70;2146941;82;21263;-79
2020/12/10 03:17:46;;;;;;;48.77;22.17;;;;;;;-1.90;78.25;98435.22;2146907;82;21434;-80
2020/12/10 03:20:47;;;;;;;49.43;21.30;;;;;;;-1.96;78.28;98426.81;2147388;82;21283;-80
2020/12/10 03:23:48;;;;;;;56.37;23.07;;;;;;;-2.00;78.46;98421.05;2146616;82;21586;-79
2020/12/10 03:26:49;;;;;;;38.87;18.97;;;;;;;-2.00;78.50;98419.78;2145776;82;21145;-80
2020/12/10 03:29:50;;;;;;;41.37;18.13;;;;;;;-1.95;78.41;98419.23;2146335;82;21256;-79
2020/12/10 03:32:51;;;;;;;49.53;21.53;;;;;;;-1.96;78.64;98423.86;2146590;83;21129;-80
2020/12/10 03:35:52;;;;;;;47.47;21.63;;;;;;;-1.97;78.71;98418.66;2146681;82;21149;-79
2020/12/10 03:38:53;;;;;;;42.70;18.70;;;;;;;-1.94;78.42;98422.66;2147003;82;21149;-79
2020/12/10 03:41:57;;;;;;;52.73;23.60;;;;;;;-1.92;78.73;98421.95;2146945;82;21419;-80
2020/12/10 03:44:58;;;;;;;51.33;21.93;;;;;;;-1.93;78.38;98418.03;2146357;83;21145;-80
2020/12/10 03:47:59;;;;;;;47.67;21.23;;;;;;;-1.88;78.57;98413.16;2146061;82;21275;-78
2020/12/10 03:51:01;;;;;;;51.60;22.73;;;;;;;-1.85;78.42;98409.08;2146487;83;21141;-78
2020/12/10 03:54:02;;;;;;;46.43;22.07;;;;;;;-1.80;78.29;98408.05;2146642;82;21360;-78
2020/12/10 03:57:03;;;;;;;43.30;20.33;;;;;;;-1.79;78.15;98413.24;2145979;83;21423;-79
2020/12/10 04:00:04;;;;;;;49.93;21.47;;;;;;;-1.83;78.21;98411.33;2147091;82;21106;-81
2020/12/10 04:03:05;;;;;;;40.40;19.27;;;;;;;-1.85;78.26;98412.05;2146493;83;21870;-81
2020/12/10 04:06:06;;;;;;;37.60;16.10;;;;;;;-1.78;78.56;98415.41;2146127;83;21296;-81
2020/12/10 04:09:07;;;;;;;39.67;18.70;;;;;;;-1.80;78.14;98407.65;2147207;82;21268;-80
2020/12/10 04:12:11;;;;;;;60.07;24.40;;;;;;;-1.92;78.48;98409.56;2147032;83;21139;-80
2020/12/10 04:15:12;;;;;;;36.87;17.27;;;;;;;-1.99;78.53;98403.23;2146727;83;21137;-81
2020/12/10 04:18:14;;;;;;;40.03;16.77;;;;;;;-1.96;78.46;98403.40;2146411;83;21157;-78
2020/12/10 04:21:15;;;;;;;34.57;16.73;;;;;;;-1.92;78.49;98398.92;2146500;82;21256;-80
2020/12/10 04:24:16;;;;;;;41.13;20.30;;;;;;;-1.89;78.65;98402.45;2145275;82;21594;-79
2020/12/10 04:27:17;;;;;;;33.47;17.70;;;;;;;-1.88;78.56;98397.41;2145312;82;21133;-80
2020/12/10 04:30:21;;;;;;;47.97;21.07;;;;;;;-1.90;78.45;98395.17;2146137;82;21158;-80
2020/12/10 04:33:22;;;;;;;43.37;19.90;;;;;;;-1.89;78.39;98402.45;2145461;82;21133;-79
2020/12/10 04:36:23;;;;;;;45.23;21.67;;;;;;;-1.87;78.52;98399.56;2145160;83;21146;-82
2020/12/10 04:39:24;;;;;;;36.50;16.47;;;;;;;-1.86;78.38;98396.21;2144843;83;21538;-80
2020/12/10 04:42:25;;;;;;;42.80;19.90;;;;;;;-1.83;78.44;98383.18;2144534;82;21256;-79
2020/12/10 04:45:26;;;;;;;49.60;21.67;;;;;;;-1.89;78.49;98385.81;2143891;83;21303;-79
2020/12/10 04:48:27;;;;;;;49.83;19.03;;;;;;;-1.86;78.50;98384.70;2144120;83;21259;-79
2020/12/10 04:51:28;;;;;;;45.13;20.00;;;;;;;-1.87;78.63;98377.83;2144021;83;21248;-78
2020/12/10 04:54:30;;;;;;;39.73;17.70;;;;;;;-1.88;78.49;98381.18;2143395;82;21252;-80
2020/12/10 04:57:31;;;;;;;34.93;18.83;;;;;;;-1.90;78.63;98377.66;2143824;82;21224;-80
2020/12/10 05:00:32;;;;;;;36.73;17.87;;;;;;;-1.94;78.49;98371.50;2143273;82;21799;-80
2020/12/10 05:03:33;;;;;;;36.10;17.57;;;;;;;-1.91;78.62;98374.22;2143353;82;21265;-79
2020/12/10 05:06:34;;;;;;;43.43;20.83;;;;;;;-1.94;78.57;98365.98;2142819;82;21304;-79
2020/12/10 05:09:35;;;;;;;33.27;17.47;;;;;;;-1.93;78.50;98371.59;2143308;82;21288;-80
2020/12/10 05:12:36;;;;;;;40.47;18.73;;;;;;;-1.81;78.55;98360.23;2143603;82;21264;-79
2020/12/10 05:15:37;;;;;;;38.27;18.70;;;;;;;-1.71;78.35;98359.95;2143344;82;21334;-79
2020/12/10 05:18:39;;;;;;;39.67;18.53;;;;;;;-1.64;78.10;98357.78;2144019;82;21657;-81
2020/12/10 05:21:40;;;;;;;31.73;15.97;;;;;;;-1.56;77.94;98360.73;2144346;82;21141;-79
2020/12/10 05:24:41;;;;;;;38.53;18.10;;;;;;;-1.52;77.79;98366.48;2144168;82;21177;-79
2020/12/10 05:27:42;;;;;;;46.63;18.57;;;;;;;-1.45;77.70;98367.27;2144427;83;21407;-79
2020/12/10 05:30:43;;;;;;;34.03;15.63;;;;;;;-1.35;77.57;98359.66;2144322;82;21129;-80
2020/12/10 05:33:44;;;;;;;31.30;16.17;;;;;;;-1.30;77.30;98356.92;2144897;83;21140;-80
2020/12/10 05:36:45;;;;;;;43.87;21.13;;;;;;;-1.30;77.25;98354.36;2145185;83;21256;-80
2020/12/10 05:39:48;;;;;;;39.07;18.93;;;;;;;-1.25;77.21;98346.91;2145594;83;21267;-80
2020/12/10 05:42:49;;;;;;;31.50;16.47;;;;;;;-1.27;77.01;98347.23;2144638;82;21133;-79
2020/12/10 05:45:50;;;;;;;29.33;16.00;;;;;;;-1.34;77.10;98340.53;2144820;83;21299;-82
2020/12/10 05:48:51;;;;;;;40.73;18.77;;;;;;;-1.30;77.09;98342.84;2144087;83;21275;-79
2020/12/10 05:51:52;;;;;;;38.87;19.63;;;;;;;-1.34;76.92;98330.69;2143971;82;21582;-80
2020/12/10 05:54:54;;;;;;;39.77;20.00;;;;;;;-1.02;78.93;98328.03;2143404;83;21251;-79
2020/12/10 05:57:55;;;;;;;78.93;44.23;;;;;;;-0.98;76.50;98327.38;2142967;83;21248;-79
2020/12/10 06:00:56;;;;;;;33.73;18.00;;;;;;;-1.12;76.53;98320.70;2143834;82;21137;-80
2020/12/10 06:03:57;;;;;;;36.90;20.03;;;;;;;-1.22;76.58;98316.34;2144490;83;21284;-79
2020/12/10 06:06:58;;;;;;;41.47;19.33;;;;;;;-1.29;76.79;98321.55;2144425;82;21539;-80
2020/12/10 06:09:59;;;;;;;38.33;17.57;;;;;;;-0.35;82.11;98311.13;2144646;82;21264;-80
2020/12/10 06:13:01;;;;;;;37.67;19.27;;;;;;;-0.17;75.46;98311.96;2144426;83;21272;-80
2020/12/10 06:16:02;;;;;;;39.87;19.67;;;;;;;-0.42;75.07;98322.79;2143803;83;21105;-81
2020/12/10 06:19:03;;;;;;;38.73;19.23;;;;;;;-0.75;74.90;98323.38;2144441;82;21256;-80
2020/12/10 06:22:04;;;;;;;42.33;18.83;;;;;;;-0.96;75.31;98310.39;2144163;83;21581;-81
2020/12/10 06:25:05;;;;;;;54.63;20.63;;;;;;;-0.31;77.26;98316.87;2144573;82;21165;-80
2020/12/10 06:28:08;;;;;;;42.13;18.03;;;;;;;-0.46;75.03;98315.77;2145055;83;21261;-78
2020/12/10 06:31:09;;;;;;;42.40;18.80;;;;;;;-0.72;74.97;98320.96;2144432;83;21252;-80
2020/12/10 06:34:10;;;;;;;48.30;21.47;;;;;;;-0.98;75.28;98332.90;2143578;82;21558;-80
2020/12/10 06:37:11;;;;;;;50.30;21.53;;;;;;;-1.20;75.89;98335.22;2143728;83;21256;-79
2020/12/10 06:40:12;;;;;;;47.27;20.70;;;;;;;-1.24;76.23;98332.03;2143841;82;21711;-81
2020/12/10 06:43:13;;;;;;;46.10;20.23;;;;;;;-1.25;76.25;98334.11;2143770;82;21123;-79
2020/12/10 06:46:14;;;;;;;36.47;17.77;;;;;;;-1.26;76.33;98334.51;2144056;82;21299;-81
2020/12/10 06:49:15;;;;;;;41.13;18.43;;;;;;;-0.18;82.54;98327.28;2144340;82;21275;-81
2020/12/10 06:52:18;;;;;;;54.03;20.17;;;;;;;1.03;74.09;98318.89;2144723;83;21288;-81
2020/12/10 06:55:19;;;;;;;43.07;19.03;;;;;;;0.33;73.02;98321.05;2144744;83;21255;-80
2020/12/10 06:58:20;;;;;;;46.27;19.13;;;;;;;-0.13;73.75;98321.55;2145088;83;21244;-79
2020/12/10 07:01:21;;;;;;;48.50;16.90;;;;;;;-0.32;74.08;98321.53;2143665;83;21729;-80
2020/12/10 07:04:32;;;;;;;44.60;21.43;;;;;;;-0.52;74.23;98321.89;2143237;83;21307;-80
2020/12/10 07:07:33;;;;;;;33.63;18.80;;;;;;;1.50;82.08;98314.34;2143228;82;21276;-79
2020/12/10 07:10:34;;;;;;;44.93;20.43;;;;;;;1.57;72.45;98309.02;2143697;82;21550;-81
2020/12/10 07:13:35;;;;;;;36.73;19.73;;;;;;;0.82;71.01;98305.13;2143143;82;21121;-80
2020/12/10 07:16:36;;;;;;;44.53;20.13;;;;;;;0.15;72.05;98311.26;2143248;82;21267;-81
2020/12/10 07:19:38;;;;;;;43.77;18.10;;;;;;;-0.29;72.83;98319.10;2143252;82;21283;-80
2020/12/10 07:22:39;;;;;;;41.00;19.73;;;;;;;-0.60;73.69;98319.78;2144077;83;21616;-80
2020/12/10 07:25:40;;;;;;;39.37;19.40;;;;;;;-0.80;74.40;98316.28;2143408;83;21385;-79
2020/12/10 07:28:41;;;;;;;38.07;17.27;;;;;;;-0.84;74.75;98313.97;2143896;82;21263;-81
2020/12/10 07:31:42;;;;;;;35.80;18.80;;;;;;;-0.89;74.76;98320.53;2144049;82;21126;-79
2020/12/10 07:34:43;;;;;;;46.17;19.87;;;;;;;-0.95;74.87;98312.55;2142969;83;21574;-81
2020/12/10 07:37:44;;;;;;;42.30;20.63;;;;;;;-1.07;75.10;98313.23;2143409;82;21260;-80
2020/12/10 07:40:45;;;;;;;47.30;21.77;;;;;;;-1.17;75.34;98325.13;2143773;83;21244;-81
2020/12/10 07:43:46;;;;;;;35.33;18.87;;;;;;;-1.17;75.65;98322.56;2143163;82;21259;-80
2020/12/10 07:46:47;;;;;;;42.53;19.70;;;;;;;-1.22;76.00;98321.05;2143362;82;22043;-80
2020/12/10 07:49:48;;;;;;;41.67;21.00;;;;;;;-1.24;75.85;98317.94;2143154;82;21264;-80
2020/12/10 07:52:50;;;;;;;48.50;20.03;;;;;;;-1.26;76.09;98322.98;2143266;82;21256;-79
2020/12/10 07:55:51;;;;;;;42.37;20.53;;;;;;;-1.24;76.21;98315.38;2142946;83;21610;-80
2020/12/10 07:58:52;;;;;;;46.33;22.57;;;;;;;-1.22;76.21;98315.93;2143440;82;21269;-80
2020/12/10 08:01:53;;;;;;;36.93;18.97;;;;;;;-1.21;76.12;98310.41;2142518;82;21339;-79
2020/12/10 08:04:54;;;;;;;42.97;18.80;;;;;;;0.94;84.76;98299.24;2142374;83;21732;-78
2020/12/10 08:07:55;;;;;;;34.13;18.13;;;;;;;1.47;72.13;98295.34;2142638;82;21292;-79
2020/12/10 08:10:56;;;;;;;38.23;18.33;;;;;;;0.67;71.57;98295.51;2142883;82;21268;-78
2020/12/10 08:13:57;;;;;;;37.30;20.50;;;;;;;0.11;72.27;98299.11;2142521;83;21255;-78
2020/12/10 08:17:00;;;;;;;37.33;19.10;;;;;;;-0.02;72.83;98296.38;2142623;83;21129;-79
2020/12/10 08:20:01;;;;;;;33.07;16.63;;;;;;;-0.28;73.19;98293.05;2143213;82;21268;-80
2020/12/10 08:23:02;;;;;;;43.20;19.60;;;;;;;-0.45;73.48;98289.31;2143070;82;21252;-78
2020/12/10 08:26:03;;;;;;;37.27;20.17;;;;;;;-0.56;73.67;98281.54;2143789;82;21307;-79
2020/12/10 08:29:04;;;;;;;42.53;19.93;;;;;;;-0.60;73.83;98286.05;2142672;83;21260;-76
2020/12/10 08:32:05;;;;;;;38.93;20.53;;;;;;;-0.66;73.99;98284.48;2142701;82;21734;-77
2020/12/10 08:35:06;;;;;;;37.50;18.73;;;;;;;-0.70;74.08;98280.91;2142477;83;21252;-77
2020/12/10 08:38:07;;;;;;;348.20;40.30;;;;;;;-0.69;74.23;98278.81;2142630;82;21846;-79
2020/12/10 08:41:08;;;;;;;36.60;17.80;;;;;;;-0.61;74.48;98270.20;2141969;83;21765;-77
2020/12/10 08:44:10;;;;;;;46.70;22.50;;;;;;;-0.49;74.25;98263.47;2142416;83;21146;-78
2020/12/10 08:47:11;;;;;;;45.87;22.03;;;;;;;-0.49;74.20;98258.34;2142319;83;21255;-79
2020/12/10 08:50:24;;;;;;;48.87;23.80;;;;;;;-0.47;74.14;98255.44;2142623;82;21260;-78
2020/12/10 08:53:25;;;;;;;57.13;24.13;;;;;;;-0.43;74.22;98259.90;2142633;82;21264;-77
2020/12/10 08:56:34;;;;;;;48.87;23.20;;;;;;;-0.42;73.96;98253.56;2142438;82;21145;-78
2020/12/10 08:59:29;;;;;;;53.30;25.83;;;;;;;-0.43;74.09;98250.52;2142035;83;21267;-77
2020/12/10 09:02:30;;;;;;;47.37;19.57;;;;;;;-0.52;74.14;98246.66;2144235;82;21302;-77
2020/12/10 09:05:31;;;;;;;59.57;25.83;;;;;;;-0.56;74.31;98242.20;2147566;82;21605;-78
2020/12/10 09:08:32;;;;;;;58.73;26.73;;;;;;;-0.59;74.45;98237.82;2147155;82;21283;-79
2020/12/10 09:11:35;;;;;;;54.27;26.07;;;;;;;-0.66;74.52;98231.54;2148770;83;21597;-76
2020/12/10 09:14:36;;;;;;;56.40;26.67;;;;;;;-0.69;74.57;98233.96;2148313;83;21263;-78
2020/12/10 09:17:37;;;;;;;57.93;28.40;;;;;;;-0.68;74.74;98226.75;2148328;83;21267;-78
2020/12/10 09:20:38;;;;;;;50.23;24.43;;;;;;;-0.68;74.87;98230.59;2148463;82;21271;-78
2020/12/10 09:23:44;;;;;;;50.10;23.27;;;;;;;-0.71;74.80;98231.73;2147935;83;21255;-80
2020/12/10 09:26:45;;;;;;;60.63;26.83;;;;;;;-0.68;74.91;98220.74;2147249;83;21804;-78
2020/12/10 09:29:47;;;;;;;47.77;24.23;;;;;;;-0.65;74.97;98219.59;2147564;83;21271;-77
2020/12/10 09:32:49;;;;;;;52.17;26.80;;;;;;;-0.66;74.83;98211.03;2147434;83;21140;-77
2020/12/10 09:35:50;;;;;;;46.97;24.33;;;;;;;-0.62;74.88;98204.77;2148110;82;21251;-78
2020/12/10 09:38:51;;;;;;;48.13;23.53;;;;;;;-0.55;74.97;98196.53;2147477;83;21248;-78
2020/12/10 09:41:52;;;;;;;58.17;27.43;;;;;;;-0.54;74.65;98195.73;2148733;83;21906;-76
2020/12/10 09:44:53;;;;;;;73.33;37.70;;;;;;;-0.61;74.80;98186.01;2148221;83;21790;-78
2020/12/10 09:47:54;;;;;;;53.67;24.67;;;;;;;-0.56;74.95;98184.53;2148750;83;21279;-78
2020/12/10 09:50:56;;;;;;;45.23;23.03;;;;;;;-0.47;74.77;98177.25;2148840;82;21283;-79
2020/12/10 09:54:03;;;;;;;53.70;24.67;;;;;;;-0.44;74.64;98177.38;2148992;82;21815;-77
2020/12/10 09:57:19;;;;;;;55.50;22.70;;;;;;;-0.38;74.74;98169.95;2148547;82;22017;-78
2020/12/10 10:00:11;;;;;;;55.20;25.30;;;;;;;-0.37;74.52;98167.45;2147713;82;21152;-80
2020/12/10 10:03:12;;;;;;;46.63;22.43;;;;;;;-0.34;74.57;98169.27;2145576;83;21479;-77
2020/12/10 10:06:13;;;;;;;46.30;22.40;;;;;;;-0.31;74.65;98161.72;2143391;82;21288;-78
2020/12/10 10:09:15;;;;;;;43.70;20.93;;;;;;;-0.29;74.49;98165.22;2141761;83;21125;-77
2020/12/10 10:12:16;;;;;;;41.50;21.87;;;;;;;-0.25;74.54;98160.70;2143199;82;21300;-78
2020/12/10 10:15:17;;;;;;;43.30;20.77;;;;;;;-0.13;74.36;98162.50;2142711;83;21279;-79
2020/12/10 10:18:18;;;;;;;39.40;18.30;;;;;;;-0.09;74.30;98152.84;2143337;83;21275;-78
2020/12/10 10:21:19;;;;;;;42.83;21.27;;;;;;;-0.08;74.07;98152.03;2146004;82;21252;-78
2020/12/10 10:24:20;;;;;;;54.70;24.33;;;;;;;-0.09;74.38;98147.70;2143672;83;21621;-77
2020/12/10 10:27:21;;;;;;;37.60;20.63;;;;;;;0.03;74.37;98138.80;2142861;83;21275;-78
2020/12/10 10:30:25;;;;;;;43.20;23.10;;;;;;;0.14;74.19;98137.15;2143010;83;21271;-78
2020/12/10 10:33:25;;;;;;;40.20;22.10;;;;;;;0.19;73.86;98136.05;2143007;82;21466;-77
2020/12/10 10:36:27;;;;;;;44.73;22.73;;;;;;;0.20;74.09;98133.95;2143039;83;21418;-77
2020/12/10 10:39:28;;;;;;;40.50;20.87;;;;;;;0.27;73.92;98126.56;2143027;83;21121;-77
2020/12/10 10:42:29;;;;;;;41.63;22.43;;;;;;;0.31;73.72;98133.58;2142841;83;21145;-78
2020/12/10 10:45:30;;;;;;;39.07;20.27;;;;;;;0.30;73.67;98127.97;2142919;82;21303;-76
2020/12/10 10:48:32;;;;;;;39.30;20.47;;;;;;;0.30;73.75;98120.67;2142774;83;21279;-76
2020/12/10 10:51:33;;;;;;;39.50;19.70;;;;;;;0.25;73.69;98120.91;2143553;83;21129;-77
2020/12/10 10:54:34;;;;;;;41.80;21.90;;;;;;;0.25;73.93;98117.05;2142955;82;21636;-78
2020/12/10 10:57:35;;;;;;;39.80;21.37;;;;;;;0.32;73.88;98124.19;2142782;82;21714;-77
2020/12/10 11:00:36;;;;;;;41.60;22.83;;;;;;;0.39;73.86;98113.34;2143370;83;21252;-78
2020/12/10 11:03:37;;;;;;;38.03;21.63;;;;;;;0.39;73.70;98100.51;2143038;82;21291;-77
2020/12/10 11:06:38;;;;;;;40.57;22.23;;;;;;;0.45;73.69;98108.45;2143131;82;21311;-77
2020/12/10 11:09:39;;;;;;;42.73;21.70;;;;;;;0.46;73.56;98094.80;2142850;82;21093;-78
2020/12/10 11:12:41;;;;;;;46.57;23.83;;;;;;;0.53;73.77;98089.49;2143042;83;21326;-77
2020/12/10 11:15:42;;;;;;;40.60;21.77;;;;;;;0.66;73.67;98085.70;2142497;83;21276;-78
2020/12/10 11:18:43;;;;;;;42.77;23.57;;;;;;;0.76;73.52;98080.09;2143323;82;21517;-79
2020/12/10 11:21:44;;;;;;;42.13;21.57;;;;;;;0.79;73.11;98073.37;2143548;83;21137;-77
2020/12/10 11:24:45;;;;;;;51.00;24.10;;;;;;;0.82;73.04;98070.05;2143315;82;21173;-78
2020/12/10 11:27:46;;;;;;;55.70;27.17;;;;;;;0.81;72.75;98070.87;2144168;82;21162;-77
2020/12/10 11:30:47;;;;;;;45.40;23.83;;;;;;;0.83;72.98;98068.82;2143757;83;21993;-78
2020/12/10 11:33:48;;;;;;;36.97;20.13;;;;;;;0.88;72.89;98075.45;2143413;83;21130;-78
2020/12/10 11:36:49;;;;;;;45.83;23.87;;;;;;;0.89;72.89;98072.94;2143274;83;21271;-78
2020/12/10 11:39:54;;;;;;;38.83;21.33;;;;;;;0.93;72.73;98069.66;2143537;82;21286;-78
2020/12/10 11:42:54;;;;;;;36.87;22.03;;;;;;;0.95;72.69;98069.72;2144038;82;21365;-77
2020/12/10 11:45:55;;;;;;;43.50;21.83;;;;;;;0.99;72.77;98063.88;2143638;82;21833;-77
2020/12/10 11:48:56;;;;;;;48.17;23.43;;;;;;;1.00;72.79;98064.34;2143281;83;21267;-78
2020/12/10 11:51:57;;;;;;;43.60;22.97;;;;;;;1.03;72.63;98055.86;2143334;82;21259;-78
2020/12/10 11:54:58;;;;;;;58.13;26.97;;;;;;;1.05;72.58;98056.38;2143534;83;21842;-80
2020/12/10 11:57:59;;;;;;;53.50;25.40;;;;;;;1.09;72.63;98054.39;2144015;83;21252;-79
2020/12/10 12:01:00;;;;;;;46.83;24.57;;;;;;;1.08;72.56;98042.77;2144802;82;21145;-80
2020/12/10 12:04:02;;;;;;;51.50;24.93;;;;;;;1.15;72.67;98048.19;2144496;82;21280;-79
2020/12/10 12:07:03;;;;;;;50.60;26.13;;;;;;;1.26;72.72;98040.85;2144220;83;21248;-81
2020/12/10 12:10:04;;;;;;;43.93;24.13;;;;;;;1.36;72.63;98042.05;2144842;82;21414;-80
2020/12/10 12:13:05;;;;;;;39.30;24.70;;;;;;;1.44;72.25;98037.63;2144620;82;21637;-79
2020/12/10 12:16:06;;;;;;;58.20;28.20;;;;;;;1.41;72.25;98039.23;2144171;83;21271;-81
2020/12/10 12:19:07;;;;;;;60.77;29.37;;;;;;;1.45;72.24;98034.23;2145047;82;21406;-78
2020/12/10 12:22:08;;;;;;;65.73;28.97;;;;;;;1.52;71.98;98030.18;2145327;82;21268;-81
2020/12/10 12:25:09;;;;;;;64.17;31.43;;;;;;;1.56;72.07;98030.75;2145536;82;21314;-79
2020/12/10 12:28:10;;;;;;;75.53;38.83;;;;;;;1.53;71.89;98029.36;2145402;82;21299;-82
2020/12/10 12:31:12;;;;;;;59.33;32.53;;;;;;;1.52;72.01;98025.91;2145992;82;21094;-80
2020/12/10 12:34:13;;;;;;;65.00;36.70;;;;;;;1.49;72.00;98018.50;2144475;82;21252;-79
2020/12/10 12:37:14;;;;;;;58.37;31.33;;;;;;;1.48;71.85;98016.75;2144959;83;21260;-79
2020/12/10 12:40:16;;;;;;;55.17;30.57;;;;;;;1.49;72.00;98014.64;2144070;83;21292;-79
2020/12/10 12:43:17;;;;;;;44.47;28.07;;;;;;;1.57;72.04;98012.80;2145213;83;21271;-80
2020/12/10 12:46:21;;;;;;;43.80;24.67;;;;;;;1.60;71.73;98009.45;2143835;82;21299;-80
2020/12/10 12:49:21;;;;;;;37.67;22.93;;;;;;;2.52;73.50;98015.84;2143450;83;21271;-81
2020/12/10 12:52:22;;;;;;;43.17;23.80;;;;;;;2.44;71.09;98023.75;2143594;82;21273;-79
2020/12/10 12:55:23;;;;;;;64.67;33.97;;;;;;;2.23;70.89;98021.39;2142682;82;21281;-78
2020/12/10 12:58:24;;;;;;;65.57;33.03;;;;;;;2.10;70.84;98019.26;2143689;83;21268;-79
2020/12/10 13:01:25;;;;;;;49.60;26.67;;;;;;;2.30;71.88;98018.17;2144295;82;21312;-80
2020/12/10 13:04:27;;;;;;;61.27;31.77;;;;;;;2.19;70.74;98011.41;2147496;82;21327;-79
2020/12/10 13:07:29;;;;;;;48.10;25.40;;;;;;;2.02;71.16;98007.84;2148394;83;21283;-79
2020/12/10 13:10:30;;;;;;;45.83;24.03;;;;;;;1.86;70.79;98011.21;2149702;82;21223;-79
2020/12/10 13:13:31;;;;;;;49.87;27.50;;;;;;;1.70;71.26;98010.22;2148657;82;21263;-79
2020/12/10 13:16:32;;;;;;;51.70;27.73;;;;;;;1.64;71.48;98007.85;2148671;83;21263;-78
2020/12/10 13:19:33;;;;;;;58.97;30.07;;;;;;;1.63;71.52;98008.27;2148775;83;21311;-79
2020/12/10 13:22:34;;;;;;;46.63;25.93;;;;;;;1.58;71.62;98009.39;2149528;82;21259;-82
2020/12/10 13:25:35;;;;;;;49.53;27.33;;;;;;;1.53;71.69;98008.37;2150610;83;21331;-79
2020/12/10 13:28:36;;;;;;;60.23;29.80;;;;;;;1.49;71.93;98007.80;2148568;83;21132;-77
2020/12/10 13:31:37;;;;;;;41.40;22.80;;;;;;;1.46;72.01;98008.11;2149531;83;21271;-78
2020/12/10 13:34:38;;;;;;;57.83;29.90;;;;;;;1.41;72.04;98009.65;2149894;83;21570;-80
2020/12/10 13:37:40;;;;;;;46.97;24.83;;;;;;;1.34;72.20;98007.69;2150087;83;21553;-80
2020/12/10 13:40:41;;;;;;;52.60;31.77;;;;;;;1.26;72.30;98012.16;2149834;82;21904;-84
2020/12/10 13:43:42;;;;;;;52.57;27.07;;;;;;;1.18;72.53;98015.28;2150183;83;21275;-82
2020/12/10 13:46:43;;;;;;;45.63;24.00;;;;;;;1.16;72.82;98010.50;2150772;83;21323;-81
2020/12/10 13:49:44;;;;;;;50.60;29.77;;;;;;;1.16;72.83;98011.78;2150341;83;21306;-83
2020/12/10 13:52:45;;;;;;;53.20;30.03;;;;;;;1.10;72.85;98013.73;2149846;83;21919;-80
2020/12/10 13:55:47;;;;;;;37.60;21.90;;;;;;;1.08;73.01;98014.50;2150287;83;21263;-81